Time;durP1;ratioP1;P1;durP2;ratioP2;P2;SDS_P1;SDS_P2;PMS_P1;PMS_P2;Temp;Humidity;BMP_temperature;BMP_pressure;BME280_temperature;BME280_humidity;BME280_pressure;Samples;Min_cycle;Max_cycle;Signal;HPM_P1;HPM_P2
2022/01/09 00:01:29;;;;;;;10.32;8.68;;;4.30;99.90;;;;;;5068302;28;20056;-64
2022/01/09 00:03:55;;;;;;;8.90;8.10;;;4.40;99.90;;;;;;5067125;28;20125;-64
2022/01/09 00:06:21;;;;;;;10.13;9.13;;;4.40;99.90;;;;;;5063793;28;20124;-64
2022/01/09 00:08:47;;;;;;;10.30;9.25;;;4.40;99.90;;;;;;5063092;28;20037;-64
2022/01/09 00:11:14;;;;;;;10.05;9.05;;;4.30;99.90;;;;;;5064516;28;20048;-64
2022/01/09 00:13:40;;;;;;;10.10;8.77;;;4.30;99.90;;;;;;5061576;28;20086;-64
2022/01/09 00:16:06;;;;;;;9.68;7.97;;;4.30;99.90;;;;;;5059897;28;20264;-64
2022/01/09 00:18:32;;;;;;;10.35;8.80;;;4.40;99.90;;;;;;5060660;28;20029;-64
2022/01/09 00:20:58;;;;;;;9.45;8.55;;;4.30;99.90;;;;;;5058438;28;20476;-64
2022/01/09 00:23:24;;;;;;;10.52;9.15;;;4.30;99.90;;;;;;5057434;28;20029;-64
2022/01/09 00:25:50;;;;;;;10.88;9.50;;;4.40;99.90;;;;;;5062698;28;20078;-64
2022/01/09 00:28:15;;;;;;;9.23;8.32;;;4.40;99.90;;;;;;5061965;28;20039;-64
2022/01/09 00:30:41;;;;;;;11.25;9.52;;;4.40;99.90;;;;;;5063216;28;20045;-64
2022/01/09 00:33:07;;;;;;;10.32;9.23;;;4.40;99.90;;;;;;5067057;28;20043;-64
2022/01/09 00:35:34;;;;;;;11.50;10.30;;;4.40;99.90;;;;;;5064604;28;20396;-63
2022/01/09 00:38:00;;;;;;;11.40;10.05;;;4.40;99.90;;;;;;5061829;28;20037;-63
2022/01/09 00:40:26;;;;;;;12.25;9.88;;;4.40;99.90;;;;;;5064621;28;20040;-63
2022/01/09 00:42:51;;;;;;;13.48;10.95;;;4.40;99.90;;;;;;5067589;28;20039;-63
2022/01/09 00:45:17;;;;;;;11.90;10.70;;;4.40;99.90;;;;;;5066149;28;20032;-63
2022/01/09 00:47:44;;;;;;;11.60;10.40;;;4.30;99.90;;;;;;5063549;28;21546;-63
2022/01/09 00:50:12;;;;;;;12.60;10.70;;;4.40;99.90;;;;;;5061944;28;20055;-63
2022/01/09 00:52:38;;;;;;;14.20;11.90;;;4.40;99.90;;;;;;5063235;28;20086;-63
2022/01/09 00:55:04;;;;;;;13.30;10.32;;;4.40;99.90;;;;;;5065456;28;20091;-64
2022/01/09 00:57:30;;;;;;;11.88;10.45;;;4.40;99.90;;;;;;5062999;28;20507;-64
2022/01/09 00:59:56;;;;;;;12.02;10.60;;;4.40;99.90;;;;;;5062028;28;20056;-64
2022/01/09 01:02:22;;;;;;;12.73;10.80;;;4.40;99.90;;;;;;5065632;28;20044;-64
2022/01/09 01:04:51;;;;;;;12.38;10.60;;;4.40;99.90;;;;;;5062960;28;20040;-64
2022/01/09 01:07:18;;;;;;;12.98;10.63;;;4.40;99.90;;;;;;5061688;28;20052;-64
2022/01/09 01:09:44;;;;;;;12.07;10.60;;;4.40;99.90;;;;;;5059364;28;20039;-64
2022/01/09 01:12:09;;;;;;;11.57;10.45;;;4.40;99.90;;;;;;5064074;28;20040;-64
2022/01/09 01:14:35;;;;;;;12.85;11.50;;;4.40;99.90;;;;;;5065151;28;20127;-63
2022/01/09 01:17:01;;;;;;;16.35;12.45;;;4.40;99.90;;;;;;5060571;28;20406;-63
2022/01/09 01:19:27;;;;;;;16.25;12.73;;;4.40;99.90;;;;;;5062281;28;20490;-63
2022/01/09 01:21:52;;;;;;;15.77;12.55;;;4.40;99.90;;;;;;5062713;28;20048;-63
2022/01/09 01:24:20;;;;;;;19.08;13.40;;;4.40;99.90;;;;;;5060256;28;20358;-63
2022/01/09 01:26:46;;;;;;;17.33;13.23;;;4.40;99.90;;;;;;5056927;28;20427;-64
2022/01/09 01:29:12;;;;;;;19.35;13.45;;;4.40;99.90;;;;;;5063997;28;20041;-64
2022/01/09 01:31:37;;;;;;;18.38;14.00;;;4.40;99.90;;;;;;5062656;28;20036;-64
2022/01/09 01:34:03;;;;;;;13.63;11.75;;;4.40;99.90;;;;;;5067296;28;20039;-64
2022/01/09 01:36:29;;;;;;;15.25;12.30;;;4.40;99.90;;;;;;5057972;28;20032;-64
2022/01/09 01:38:54;;;;;;;13.02;11.02;;;4.40;99.90;;;;;;5059038;28;20044;-64
2022/01/09 01:41:20;;;;;;;14.73;10.45;;;4.50;99.90;;;;;;5057967;28;20131;-64
2022/01/09 01:43:46;;;;;;;11.77;10.10;;;4.50;99.90;;;;;;5066199;28;20079;-64
2022/01/09 01:46:12;;;;;;;12.25;9.25;;;4.50;99.90;;;;;;5058899;28;20043;-64
2022/01/09 01:48:38;;;;;;;14.90;10.27;;;4.50;99.90;;;;;;5063299;28;20087;-64
2022/01/09 01:51:04;;;;;;;12.68;10.05;;;4.50;99.90;;;;;;5065068;28;20029;-64
2022/01/09 01:53:30;;;;;;;14.75;10.50;;;4.50;99.90;;;;;;5061992;28;20037;-64
2022/01/09 01:55:57;;;;;;;11.73;9.98;;;4.50;99.90;;;;;;5056600;28;20039;-64
2022/01/09 01:58:26;;;;;;;15.05;11.00;;;4.60;99.90;;;;;;5064600;28;20040;-63
2022/01/09 02:00:52;;;;;;;12.40;9.93;;;4.60;99.90;;;;;;5063110;28;20052;-63
2022/01/09 02:03:18;;;;;;;16.10;10.95;;;4.60;99.90;;;;;;5059494;28;20071;-63
2022/01/09 02:05:44;;;;;;;11.68;10.00;;;4.60;99.90;;;;;;5057388;28;20493;-63
2022/01/09 02:08:10;;;;;;;11.35;9.27;;;4.70;99.90;;;;;;5063276;28;20064;-63
2022/01/09 02:10:40;;;;;;;12.30;9.73;;;4.70;99.90;;;;;;5061907;28;20029;-63
2022/01/09 02:13:07;;;;;;;12.13;10.02;;;4.70;99.90;;;;;;5062815;28;20643;-63
2022/01/09 02:15:38;;;;;;;11.90;9.75;;;4.70;99.90;;;;;;5060827;28;20090;-63
2022/01/09 02:18:10;;;;;;;12.18;9.65;;;4.80;99.90;;;;;;5057792;28;20037;-63
2022/01/09 02:20:37;;;;;;;10.52;8.57;;;4.70;99.90;;;;;;5063223;28;20033;-63
2022/01/09 02:23:06;;;;;;;13.50;10.20;;;4.70;99.90;;;;;;5057288;28;20037;-63
2022/01/09 02:25:32;;;;;;;12.75;9.13;;;4.70;99.90;;;;;;5063320;28;20067;-63
2022/01/09 02:27:58;;;;;;;11.45;8.13;;;4.70;99.90;;;;;;5057199;28;20036;-63
2022/01/09 02:30:24;;;;;;;13.02;9.80;;;4.80;99.90;;;;;;5059721;28;20521;-63
2022/01/09 02:32:50;;;;;;;13.70;9.65;;;4.80;99.90;;;;;;5060665;28;20037;-63
2022/01/09 02:35:16;;;;;;;16.48;9.65;;;4.80;99.90;;;;;;5059927;28;20567;-64
2022/01/09 02:37:42;;;;;;;12.50;8.60;;;4.80;99.90;;;;;;5062083;28;20050;-64
2022/01/09 02:40:08;;;;;;;9.93;7.75;;;4.90;99.90;;;;;;5064254;28;20039;-64
2022/01/09 02:42:34;;;;;;;13.13;7.95;;;4.90;99.90;;;;;;5062204;28;20089;-64
2022/01/09 02:45:00;;;;;;;14.27;8.80;;;5.00;99.90;;;;;;5067191;28;20028;-64
2022/01/09 02:47:30;;;;;;;12.45;7.43;;;4.90;99.90;;;;;;5064282;28;20049;-64
2022/01/09 02:50:01;;;;;;;16.95;7.40;;;5.00;99.90;;;;;;5059337;28;20052;-64
2022/01/09 02:52:35;;;;;;;16.17;6.28;;;5.00;99.90;;;;;;5059519;28;20123;-63
2022/01/09 02:57:32;;;;;;;15.85;5.45;;;5.20;99.90;;;;;;5062355;28;20033;-64
2022/01/09 02:59:58;;;;;;;11.85;4.10;;;5.20;99.90;;;;;;5064201;28;20373;-64
2022/01/09 03:02:24;;;;;;;17.25;3.70;;;5.20;99.90;;;;;;5066869;28;20041;-64
2022/01/09 03:04:49;;;;;;;16.60;3.00;;;5.20;99.90;;;;;;5065298;28;20046;-64
2022/01/09 03:07:15;;;;;;;17.10;3.15;;;5.30;99.90;;;;;;5061884;28;20127;-64
2022/01/09 03:09:40;;;;;;;14.60;2.88;;;5.40;99.90;;;;;;5061862;28;20045;-64
2022/01/09 03:12:07;;;;;;;17.25;3.15;;;5.40;99.90;;;;;;5067788;28;20241;-64
2022/01/09 03:14:32;;;;;;;18.50;2.88;;;5.50;99.90;;;;;;5063478;28;20082;-64
2022/01/09 03:16:58;;;;;;;22.55;3.67;;;5.60;99.90;;;;;;5066906;28;20028;-64
2022/01/09 03:19:23;;;;;;;28.52;4.05;;;5.60;99.90;;;;;;5061944;28;20384;-64
2022/01/09 03:21:49;;;;;;;29.83;4.07;;;5.60;99.90;;;;;;5065100;28;20484;-63
2022/01/09 03:24:15;;;;;;;33.78;4.60;;;5.60;99.90;;;;;;5061817;28;20466;-63
2022/01/09 03:26:40;;;;;;;23.63;3.92;;;5.70;99.90;;;;;;5061459;28;20040;-63
2022/01/09 03:29:06;;;;;;;30.05;4.40;;;5.70;99.90;;;;;;5060862;28;20083;-63
2022/01/09 03:31:32;;;;;;;28.50;4.22;;;5.80;99.90;;;;;;5060434;28;20443;-63
2022/01/09 03:33:57;;;;;;;51.33;5.78;;;5.70;99.90;;;;;;5061240;28;20131;-63
2022/01/09 03:36:23;;;;;;;34.40;5.03;;;5.80;99.90;;;;;;5043421;28;20098;-64
2022/01/09 03:38:49;;;;;;;35.10;5.45;;;5.80;99.90;;;;;;5061349;28;20041;-64
2022/01/09 03:41:14;;;;;;;45.58;5.35;;;5.80;99.90;;;;;;5060292;28;20084;-64
2022/01/09 03:43:40;;;;;;;36.25;5.07;;;5.80;99.90;;;;;;5063897;28;20037;-64
2022/01/09 03:46:06;;;;;;;49.85;6.10;;;5.80;99.90;;;;;;5060778;28;20047;-63
2022/01/09 03:48:32;;;;;;;48.53;6.30;;;5.90;99.90;;;;;;5061483;28;20060;-63
2022/01/09 03:50:58;;;;;;;32.38;4.43;;;5.90;99.90;;;;;;5058288;28;20125;-64
2022/01/09 03:53:23;;;;;;;47.22;5.97;;;5.90;99.90;;;;;;5060308;28;20125;-64
2022/01/09 03:55:49;;;;;;;48.28;5.13;;;5.90;99.90;;;;;;5059835;28;20086;-64
2022/01/09 03:58:15;;;;;;;42.78;5.55;;;5.90;99.90;;;;;;5058983;28;20040;-64
2022/01/09 04:00:41;;;;;;;46.55;5.43;;;5.90;99.90;;;;;;5058641;28;20080;-64
2022/01/09 04:03:07;;;;;;;40.75;5.18;;;5.90;99.90;;;;;;5061121;28;20041;-64
2022/01/09 04:05:33;;;;;;;43.03;6.05;;;5.90;99.90;;;;;;5060553;28;20047;-64
2022/01/09 04:07:58;;;;;;;41.55;5.15;;;5.90;99.90;;;;;;5063852;28;20040;-64
2022/01/09 04:10:28;;;;;;;41.03;5.82;;;5.90;99.90;;;;;;5064242;28;20415;-64
2022/01/09 04:12:59;;;;;;;41.00;6.28;;;5.90;99.90;;;;;;5059751;28;20063;-64
2022/01/09 04:15:26;;;;;;;41.10;5.22;;;5.90;99.90;;;;;;5062384;28;20039;-64
2022/01/09 04:17:54;;;;;;;39.20;5.93;;;5.90;99.90;;;;;;5059401;28;20387;-64
2022/01/09 04:20:22;;;;;;;41.75;6.38;;;5.90;99.90;;;;;;5062227;28;20440;-64
2022/01/09 04:22:48;;;;;;;40.30;5.30;;;5.90;99.90;;;;;;5058248;28;20068;-64
2022/01/09 04:25:15;;;;;;;39.10;5.75;;;5.90;99.90;;;;;;5062222;28;20108;-64
2022/01/09 04:27:41;;;;;;;36.88;5.40;;;5.80;99.90;;;;;;5055463;28;20040;-64
2022/01/09 04:30:07;;;;;;;33.83;4.60;;;5.90;99.90;;;;;;5057958;28;20036;-64
2022/01/09 04:32:33;;;;;;;42.30;5.68;;;5.80;99.90;;;;;;5057430;28;20041;-64
2022/01/09 04:34:59;;;;;;;37.47;4.97;;;5.90;99.90;;;;;;5061555;28;20044;-64
2022/01/09 04:37:25;;;;;;;34.90;5.57;;;5.80;99.90;;;;;;5058470;28;20123;-64
2022/01/09 04:39:52;;;;;;;31.55;4.72;;;5.90;99.90;;;;;;5057285;28;20085;-64
2022/01/09 04:42:19;;;;;;;27.27;3.67;;;5.90;99.90;;;;;;5063208;28;20064;-64
2022/01/09 04:44:45;;;;;;;34.78;5.18;;;5.90;99.90;;;;;;5057916;28;20063;-64
2022/01/09 04:47:16;;;;;;;39.55;5.93;;;5.90;99.90;;;;;;5058322;28;20106;-64
2022/01/09 04:49:44;;;;;;;37.97;4.32;;;5.80;99.90;;;;;;5055761;28;20045;-64
2022/01/09 04:52:14;;;;;;;37.65;4.18;;;5.90;99.90;;;;;;5057696;28;20158;-64
2022/01/09 04:54:40;;;;;;;26.75;4.68;;;5.90;99.90;;;;;;5057610;28;20048;-64
2022/01/09 04:57:07;;;;;;;31.50;4.07;;;5.90;99.90;;;;;;5061470;28;20356;-64
2022/01/09 04:59:32;;;;;;;36.95;4.35;;;5.80;99.90;;;;;;5057062;28;20124;-64
2022/01/09 05:01:58;;;;;;;34.72;4.82;;;5.80;99.90;;;;;;5059384;28;20135;-64
2022/01/09 05:04:24;;;;;;;32.08;4.57;;;5.80;99.90;;;;;;5056766;28;20496;-64
2022/01/09 05:06:50;;;;;;;32.80;4.25;;;5.80;99.90;;;;;;5059385;28;20072;-64
2022/01/09 05:09:15;;;;;;;26.90;4.50;;;5.80;99.90;;;;;;5062957;28;20057;-64
2022/01/09 05:11:41;;;;;;;31.23;3.53;;;5.80;99.90;;;;;;5057017;28;20041;-64
2022/01/09 05:14:07;;;;;;;28.48;3.85;;;5.70;99.90;;;;;;5057110;28;20159;-63
2022/01/09 05:16:33;;;;;;;28.10;4.10;;;5.70;99.90;;;;;;5058262;28;20103;-64
2022/01/09 05:19:04;;;;;;;20.67;3.13;;;5.70;99.90;;;;;;5059864;28;20040;-65
2022/01/09 05:21:30;;;;;;;33.05;3.90;;;5.70;99.90;;;;;;5063016;28;20055;-65
2022/01/09 05:23:55;;;;;;;30.98;3.60;;;5.70;99.90;;;;;;5057355;28;20032;-65
2022/01/09 05:26:21;;;;;;;28.85;3.45;;;5.70;99.90;;;;;;5055121;28;20559;-65
2022/01/09 05:28:47;;;;;;;23.90;3.78;;;5.60;99.90;;;;;;5057631;28;20044;-65
2022/01/09 05:31:13;;;;;;;25.88;3.88;;;5.70;99.90;;;;;;5060553;28;20040;-65
2022/01/09 05:33:38;;;;;;;28.33;3.58;;;5.60;99.90;;;;;;5062615;28;20120;-65
2022/01/09 05:36:04;;;;;;;23.95;2.78;;;5.60;99.90;;;;;;5060433;28;20036;-65
2022/01/09 05:38:31;;;;;;;19.90;2.60;;;5.60;99.90;;;;;;5078857;28;20082;-65
2022/01/09 05:40:56;;;;;;;19.10;2.83;;;5.60;99.90;;;;;;5066891;28;20445;-65
2022/01/09 05:43:23;;;;;;;23.63;3.17;;;5.60;99.90;;;;;;5062476;28;20483;-65
2022/01/09 05:45:49;;;;;;;20.10;2.95;;;5.50;99.90;;;;;;5066328;28;20370;-65
2022/01/09 05:48:16;;;;;;;24.90;3.10;;;5.60;99.90;;;;;;5061812;28;20052;-65
2022/01/09 05:50:43;;;;;;;23.73;3.08;;;5.50;99.90;;;;;;5062126;28;20033;-65
2022/01/09 05:53:08;;;;;;;22.40;3.13;;;5.50;99.90;;;;;;5057796;28;20409;-65
2022/01/09 05:55:34;;;;;;;20.80;3.17;;;5.50;99.90;;;;;;5058429;28;20102;-65
2022/01/09 05:58:00;;;;;;;23.00;3.25;;;5.50;99.90;;;;;;5059495;28;20040;-65
2022/01/09 06:00:25;;;;;;;26.88;3.38;;;5.40;99.90;;;;;;5059677;28;20226;-65
2022/01/09 06:02:51;;;;;;;28.00;3.28;;;5.40;99.90;;;;;;5061743;28;20076;-64
2022/01/09 06:05:17;;;;;;;19.33;2.90;;;5.30;99.90;;;;;;5061168;28;20079;-65
2022/01/09 06:07:43;;;;;;;27.60;3.42;;;5.40;99.90;;;;;;5060555;28;20048;-65
2022/01/09 06:10:10;;;;;;;26.40;3.38;;;5.30;99.90;;;;;;5072315;28;20074;-65
2022/01/09 06:12:37;;;;;;;19.92;2.92;;;5.40;99.90;;;;;;5067283;28;20143;-65
2022/01/09 06:15:04;;;;;;;24.38;3.28;;;5.40;99.90;;;;;;5065865;28;20025;-65
2022/01/09 06:17:35;;;;;;;21.17;3.10;;;5.40;99.90;;;;;;5061432;28;20024;-65
2022/01/09 06:20:01;;;;;;;24.65;3.20;;;5.30;99.90;;;;;;5062833;28;20066;-65
2022/01/09 06:22:26;;;;;;;25.38;3.53;;;5.30;99.90;;;;;;5055949;28;20045;-65
2022/01/09 06:24:52;;;;;;;27.13;4.00;;;5.30;99.90;;;;;;5059166;28;20048;-65
2022/01/09 06:27:18;;;;;;;25.23;4.05;;;5.30;99.90;;;;;;5057418;28;20037;-65
2022/01/09 06:29:44;;;;;;;22.75;3.15;;;5.30;99.90;;;;;;5061208;28;20040;-65
2022/01/09 06:32:10;;;;;;;24.95;3.63;;;5.30;99.90;;;;;;5061720;28;20461;-65
2022/01/09 06:34:36;;;;;;;23.83;3.35;;;5.40;99.90;;;;;;5064437;28;20036;-65
2022/01/09 06:37:02;;;;;;;26.90;3.00;;;5.30;99.90;;;;;;5057428;28;20086;-65
2022/01/09 06:39:28;;;;;;;28.02;3.88;;;5.30;99.90;;;;;;5063348;28;20449;-65
2022/01/09 06:41:54;;;;;;;24.00;2.97;;;5.30;99.90;;;;;;5060441;28;20047;-65
2022/01/09 06:44:19;;;;;;;17.50;2.40;;;5.30;99.90;;;;;;5062736;28;20043;-65
2022/01/09 06:46:45;;;;;;;24.45;2.75;;;5.30;99.90;;;;;;5062590;28;20037;-65
2022/01/09 06:49:11;;;;;;;20.00;2.47;;;5.30;99.90;;;;;;5065818;28;20043;-65
2022/01/09 06:51:37;;;;;;;21.08;2.65;;;5.30;99.90;;;;;;5060162;28;20485;-65
2022/01/09 06:54:03;;;;;;;19.65;2.40;;;5.20;99.90;;;;;;5058729;28;20025;-65
2022/01/09 06:56:29;;;;;;;15.30;2.20;;;5.20;99.90;;;;;;5060540;28;20040;-65
2022/01/09 06:58:55;;;;;;;20.88;2.45;;;5.20;99.90;;;;;;5060487;28;20118;-65
2022/01/09 07:01:20;;;;;;;20.27;2.15;;;5.10;99.90;;;;;;5060850;28;20060;-65
2022/01/09 07:03:46;;;;;;;20.88;2.72;;;5.10;99.90;;;;;;5051081;28;20052;-65
2022/01/09 07:06:12;;;;;;;20.00;2.67;;;5.00;99.90;;;;;;5060271;28;20080;-65
2022/01/09 07:08:38;;;;;;;13.95;2.03;;;5.00;99.90;;;;;;5053609;28;20106;-65
2022/01/09 07:11:04;;;;;;;18.58;2.40;;;5.00;99.90;;;;;;5055708;28;20037;-65
2022/01/09 07:13:31;;;;;;;30.27;12.73;;;4.90;99.90;;;;;;5058482;28;20071;-64
2022/01/09 07:15:57;;;;;;;21.95;6.97;;;4.90;99.90;;;;;;5062853;28;20041;-64
2022/01/09 07:18:23;;;;;;;11.73;1.63;;;4.90;99.90;;;;;;5061626;28;20036;-64
2022/01/09 07:20:49;;;;;;;15.75;1.90;;;4.90;99.90;;;;;;5058300;28;20047;-65
2022/01/09 07:23:15;;;;;;;12.30;1.80;;;4.80;99.90;;;;;;5056736;28;20041;-65
2022/01/09 07:25:41;;;;;;;9.95;1.33;;;4.80;99.90;;;;;;5061229;28;20137;-65
2022/01/09 07:28:06;;;;;;;11.52;1.50;;;4.80;99.90;;;;;;5062029;28;20079;-65
2022/01/09 07:30:32;;;;;;;13.23;1.70;;;4.80;99.90;;;;;;5055366;28;20077;-65
2022/01/09 07:32:59;;;;;;;13.52;2.05;;;4.80;99.90;;;;;;5056676;28;20100;-65
2022/01/09 07:35:26;;;;;;;9.63;1.33;;;4.80;99.90;;;;;;5062689;28;20345;-65
2022/01/09 07:37:52;;;;;;;14.10;1.45;;;4.70;99.90;;;;;;5060560;28;20103;-65
2022/01/09 07:40:20;;;;;;;10.68;1.60;;;4.80;99.90;;;;;;5064592;28;20032;-65
2022/01/09 07:42:47;;;;;;;11.98;1.80;;;4.70;99.90;;;;;;5061540;28;20399;-65
2022/01/09 07:45:14;;;;;;;12.70;1.30;;;4.70;99.90;;;;;;5064856;28;20080;-65
2022/01/09 07:47:40;;;;;;;13.25;1.85;;;4.70;99.90;;;;;;5056342;28;20443;-65
2022/01/09 07:50:10;;;;;;;9.52;1.73;;;4.70;99.90;;;;;;5058475;28;20088;-65
2022/01/09 07:52:36;;;;;;;10.52;1.25;;;4.70;99.90;;;;;;5056250;28;20114;-65
2022/01/09 07:55:05;;;;;;;14.10;2.63;;;4.60;99.90;;;;;;5059392;28;20044;-65
2022/01/09 07:57:32;;;;;;;12.88;1.58;;;4.60;99.90;;;;;;5056876;28;20446;-65
2022/01/09 07:59:58;;;;;;;10.73;1.48;;;4.60;99.90;;;;;;5063053;28;20083;-65
2022/01/09 08:02:24;;;;;;;16.75;2.33;;;4.60;99.90;;;;;;5064675;28;20044;-65
2022/01/09 08:04:50;;;;;;;14.65;1.50;;;4.60;99.90;;;;;;5060984;28;20412;-66
2022/01/09 08:07:16;;;;;;;14.23;1.80;;;4.60;99.90;;;;;;5060537;28;20044;-65
2022/01/09 08:09:44;;;;;;;9.43;1.38;;;4.50;99.90;;;;;;5058533;28;20041;-65
2022/01/09 08:12:14;;;;;;;8.30;1.10;;;4.60;99.90;;;;;;5061296;28;20063;-65
2022/01/09 08:14:40;;;;;;;13.48;1.70;;;4.60;99.90;;;;;;5060347;28;20120;-65
2022/01/09 08:17:07;;;;;;;9.75;1.73;;;4.60;99.90;;;;;;5069258;28;20118;-63
2022/01/09 08:19:35;;;;;;;9.00;1.60;;;4.60;99.90;;;;;;5068358;28;20039;-63
2022/01/09 08:22:02;;;;;;;11.30;1.70;;;4.60;99.90;;;;;;5060110;28;20071;-64
2022/01/09 08:24:28;;;;;;;17.92;6.32;;;4.60;99.90;;;;;;5060348;28;20040;-64
2022/01/09 08:26:54;;;;;;;14.27;4.07;;;4.70;99.90;;;;;;5064218;28;20113;-65
2022/01/09 08:29:19;;;;;;;9.40;1.48;;;4.70;99.90;;;;;;5053159;28;20691;-64
2022/01/09 08:31:45;;;;;;;9.15;1.77;;;4.70;99.90;;;;;;5067124;28;20038;-65
2022/01/09 08:34:11;;;;;;;9.85;1.50;;;4.70;99.90;;;;;;5057573;28;20079;-65
2022/01/09 08:36:37;;;;;;;10.38;1.50;;;4.70;99.90;;;;;;5059077;28;20087;-65
2022/01/09 08:39:05;;;;;;;11.35;1.83;;;4.80;99.90;;;;;;5062032;28;20480;-65
2022/01/09 08:41:31;;;;;;;12.43;1.23;;;4.80;99.90;;;;;;5054938;28;20029;-66
2022/01/09 08:43:57;;;;;;;11.70;1.50;;;4.80;99.90;;;;;;5059514;28;20040;-65
2022/01/09 08:46:23;;;;;;;13.25;1.52;;;4.80;99.90;;;;;;5060169;28;20057;-65
2022/01/09 08:48:49;;;;;;;10.85;1.60;;;4.80;99.90;;;;;;5060366;28;20062;-65
2022/01/09 08:51:15;;;;;;;12.13;1.20;;;4.80;99.90;;;;;;5061202;28;20612;-65
2022/01/09 08:53:42;;;;;;;13.63;1.45;;;4.80;99.90;;;;;;5062195;28;20558;-65
2022/01/09 08:56:08;;;;;;;16.98;1.88;;;4.80;99.90;;;;;;5063699;28;20074;-65
2022/01/09 08:58:34;;;;;;;10.98;1.25;;;4.80;99.90;;;;;;5063030;28;20519;-65
2022/01/09 09:01:00;;;;;;;11.52;1.50;;;4.90;99.90;;;;;;5057076;28;20071;-65
2022/01/09 09:03:26;;;;;;;11.65;1.60;;;4.90;99.90;;;;;;5060331;28;20058;-65
2022/01/09 09:05:52;;;;;;;9.45;1.63;;;4.90;99.90;;;;;;5059665;28;20059;-65
2022/01/09 09:08:18;;;;;;;13.10;2.40;;;4.90;99.90;;;;;;5055966;28;20045;-65
2022/01/09 09:10:43;;;;;;;12.57;2.45;;;4.90;99.90;;;;;;5058209;28;20044;-65
2022/01/09 09:13:09;;;;;;;12.20;2.08;;;4.90;99.90;;;;;;5059185;28;20633;-65
2022/01/09 09:15:36;;;;;;;8.20;1.30;;;5.00;99.90;;;;;;5060904;28;20040;-65
2022/01/09 09:18:02;;;;;;;14.82;1.90;;;5.00;99.90;;;;;;5064537;28;20036;-65
2022/01/09 09:20:28;;;;;;;15.23;2.22;;;5.00;99.90;;;;;;5057461;28;20036;-65
2022/01/09 09:22:54;;;;;;;10.77;1.90;;;5.10;99.90;;;;;;5064800;28;20036;-65
2022/01/09 09:25:20;;;;;;;13.82;1.90;;;5.00;99.90;;;;;;5060501;28;20362;-65
2022/01/09 09:27:46;;;;;;;18.02;1.92;;;5.10;99.90;;;;;;5061231;28;20028;-65
2022/01/09 09:30:14;;;;;;;14.57;1.90;;;5.10;99.90;;;;;;5056212;28;20083;-65
2022/01/09 09:32:41;;;;;;;18.33;2.38;;;5.10;99.90;;;;;;5058174;28;20108;-65
2022/01/09 09:35:08;;;;;;;15.93;1.83;;;5.10;99.90;;;;;;5055559;28;20033;-65
2022/01/09 09:37:34;;;;;;;14.65;1.77;;;5.10;99.90;;;;;;5062214;28;20037;-65
2022/01/09 09:40:00;;;;;;;14.63;2.17;;;5.20;99.90;;;;;;5058516;28;20110;-65
2022/01/09 09:42:26;;;;;;;15.93;2.45;;;5.20;99.90;;;;;;5063230;28;20067;-65
2022/01/09 09:44:52;;;;;;;13.00;1.85;;;5.20;99.90;;;;;;5060659;28;20052;-65
2022/01/09 09:47:19;;;;;;;11.95;2.08;;;5.20;99.90;;;;;;5063574;28;20046;-65
2022/01/09 09:49:47;;;;;;;10.32;1.38;;;5.20;99.90;;;;;;5062917;28;20049;-65
2022/01/09 09:52:17;;;;;;;13.38;1.63;;;5.30;99.90;;;;;;5059377;28;20039;-65
2022/01/09 09:54:44;;;;;;;7.68;0.93;;;5.30;99.90;;;;;;5059497;28;20484;-65
2022/01/09 09:57:10;;;;;;;14.00;1.60;;;5.30;99.90;;;;;;5063193;28;20120;-66
2022/01/09 09:59:37;;;;;;;12.70;1.52;;;5.40;99.90;;;;;;5062368;28;20119;-66
2022/01/09 10:02:17;;;;;;;10.15;1.20;;;5.40;99.90;;;;;;5058345;28;20055;-66
2022/01/09 10:05:01;;;;;;;8.57;1.10;;;5.40;99.90;;;;;;5057654;28;20053;-66
2022/01/09 10:07:28;;;;;;;7.90;1.30;;;5.50;99.90;;;;;;5058144;28;20036;-66
2022/01/09 10:09:57;;;;;;;11.68;1.15;;;5.40;99.90;;;;;;5059489;28;20512;-65
2022/01/09 10:12:28;;;;;;;10.25;1.20;;;5.50;99.90;;;;;;5058644;28;20112;-65
2022/01/09 10:14:56;;;;;;;9.20;1.77;;;5.50;99.90;;;;;;5058764;28;20045;-65
2022/01/09 10:17:24;;;;;;;7.28;0.98;;;5.50;99.90;;;;;;5064399;28;20075;-65
2022/01/09 10:20:04;;;;;;;15.60;4.25;;;5.50;99.90;;;;;;5055700;28;20044;-65
2022/01/09 10:22:33;;;;;;;9.18;0.98;;;5.50;99.90;;;;;;5057072;28;20388;-65
2022/01/09 10:25:25;;;;;;;6.47;1.10;;;5.60;99.90;;;;;;5058458;28;20415;-65
2022/01/09 10:27:57;;;;;;;7.78;0.88;;;5.60;99.90;;;;;;5054151;28;20066;-65
2022/01/09 10:30:26;;;;;;;5.15;0.70;;;5.60;99.90;;;;;;5059063;28;20508;-65
2022/01/09 10:32:55;;;;;;;6.88;0.80;;;5.60;99.90;;;;;;5055900;28;20044;-65
2022/01/09 10:35:22;;;;;;;6.22;0.85;;;5.60;99.90;;;;;;5057487;28;20381;-65
2022/01/09 10:37:49;;;;;;;8.10;0.93;;;5.60;99.90;;;;;;5060111;28;20131;-65
2022/01/09 10:40:21;;;;;;;10.40;1.40;;;5.60;99.90;;;;;;5058698;28;20041;-65
2022/01/09 10:43:04;;;;;;;8.10;0.80;;;5.70;99.90;;;;;;5056123;28;20512;-65
2022/01/09 10:45:31;;;;;;;6.80;1.00;;;5.70;99.90;;;;;;5059443;28;20037;-65
2022/01/09 10:48:12;;;;;;;7.40;1.23;;;5.70;99.90;;;;;;5054369;28;20519;-65
2022/01/09 10:50:41;;;;;;;6.32;1.02;;;5.80;99.90;;;;;;5058028;28;20044;-65
2022/01/09 10:53:21;;;;;;;8.90;1.92;;;5.80;99.90;;;;;;5055840;28;20086;-65
2022/01/09 10:56:00;;;;;;;9.85;1.13;;;5.90;99.90;;;;;;5060246;28;20063;-65
2022/01/09 10:58:27;;;;;;;6.28;0.80;;;6.00;99.90;;;;;;5066699;28;20040;-65
2022/01/09 11:01:09;;;;;;;8.77;1.00;;;6.00;99.90;;;;;;5069874;28;20052;-65
2022/01/09 11:03:35;;;;;;;6.93;0.82;;;6.20;99.90;;;;;;5065495;28;20131;-65
2022/01/09 11:06:02;;;;;;;11.85;1.33;;;6.20;99.90;;;;;;5065151;28;20040;-65
2022/01/09 11:08:31;;;;;;;6.05;1.00;;;6.30;99.90;;;;;;5066626;28;20033;-65
2022/01/09 11:10:58;;;;;;;8.25;0.90;;;6.40;99.90;;;;;;5064066;28;20032;-65
2022/01/09 11:13:25;;;;;;;6.38;1.33;;;6.50;99.90;;;;;;5064096;28;20044;-65
2022/01/09 11:18:39;;;;;;;7.03;0.98;;;6.50;99.90;;;;;;5066946;28;20626;-66
2022/01/09 11:21:05;;;;;;;9.82;1.52;;;6.70;99.90;;;;;;5064050;28;20044;-66
2022/01/09 11:24:01;;;;;;;8.43;1.25;;;6.70;99.90;;;;;;5066903;28;20079;-66
2022/01/09 11:26:39;;;;;;;10.90;1.65;;;6.80;99.90;;;;;;5068223;28;20393;-65
2022/01/09 11:29:11;;;;;;;11.38;2.05;;;6.80;99.90;;;;;;5064488;28;20507;-65
2022/01/09 11:31:57;;;;;;;13.40;1.67;;;6.80;99.90;;;;;;5069499;28;20033;-65
2022/01/09 11:34:38;;;;;;;11.07;1.80;;;6.90;99.90;;;;;;5065531;28;20075;-65
2022/01/09 11:37:49;;;;;;;11.50;1.95;;;6.90;99.90;;;;;;5064984;28;20040;-65
2022/01/09 11:40:23;;;;;;;14.23;4.45;;;6.80;99.90;;;;;;5066008;28;20041;-65
2022/01/09 11:43:14;;;;;;;12.63;1.77;;;6.80;99.90;;;;;;5065283;28;20066;-65
2022/01/09 11:46:02;;;;;;;11.15;2.25;;;6.80;99.90;;;;;;5058492;28;20149;-66
2022/01/09 11:48:58;;;;;;;13.35;1.95;;;6.80;99.90;;;;;;5066218;28;20068;-66
2022/01/09 11:51:34;;;;;;;;;;;6.80;99.90;;;;;;5068108;28;20371;-66
2022/01/09 11:54:07;;;;;;;15.82;2.00;;;6.80;99.90;;;;;;5063594;28;19951;-66
2022/01/09 11:56:44;;;;;;;17.15;6.75;;;6.70;99.90;;;;;;5064846;28;20033;-66
2022/01/09 11:59:27;;;;;;;12.65;2.70;;;6.70;99.90;;;;;;5068492;28;20076;-66
2022/01/09 12:02:16;;;;;;;17.23;2.55;;;6.70;99.90;;;;;;5061816;28;20408;-66
2022/01/09 12:04:42;;;;;;;17.52;2.22;;;6.80;99.90;;;;;;5067861;28;20415;-66
2022/01/09 12:07:12;;;;;;;12.38;1.63;;;6.80;99.90;;;;;;5065801;28;20056;-66
2022/01/09 12:09:47;;;;;;;16.35;2.28;;;6.80;99.90;;;;;;5061138;28;20048;-66
2022/01/09 12:12:16;;;;;;;;;;;6.90;99.90;;;;;;5064151;28;20166;-66
2022/01/09 12:14:42;;;;;;;14.50;2.22;;;6.90;99.90;;;;;;5065528;28;19920;-66
2022/01/09 12:17:36;;;;;;;17.00;2.38;;;6.90;99.90;;;;;;5065382;28;20047;-66
2022/01/09 12:20:14;;;;;;;11.57;2.42;;;6.90;99.90;;;;;;5062428;28;20052;-66
2022/01/09 12:22:46;;;;;;;24.10;2.90;;;6.80;99.90;;;;;;5062283;28;20044;-66
2022/01/09 12:28:05;;;;;;;16.50;2.88;;;6.90;99.90;;;;;;5065621;28;20117;-66
2022/01/09 12:30:47;;;;;;;16.17;2.20;;;6.80;99.90;;;;;;5065256;28;20036;-66
2022/01/09 12:33:20;;;;;;;15.70;2.35;;;6.80;99.90;;;;;;5063763;28;20497;-66
2022/01/09 12:35:56;;;;;;;16.83;2.92;;;6.90;99.90;;;;;;5064063;28;20060;-66
2022/01/09 12:38:25;;;;;;;21.15;2.63;;;6.90;99.90;;;;;;5056501;28;20117;-66
2022/01/09 12:40:58;;;;;;;14.45;2.25;;;6.90;99.90;;;;;;5060200;28;20119;-66
2022/01/09 12:43:26;;;;;;;13.73;2.28;;;7.00;99.90;;;;;;5059555;28;20029;-66
2022/01/09 12:45:52;;;;;;;13.23;1.95;;;7.00;99.90;;;;;;5058152;28;20316;-66
2022/01/09 12:48:29;;;;;;;13.05;2.03;;;7.10;99.90;;;;;;5060029;28;20041;-66
2022/01/09 12:51:05;;;;;;;11.90;1.35;;;7.10;99.90;;;;;;5064331;28;20040;-66
2022/01/09 12:53:38;;;;;;;9.15;1.42;;;7.00;99.90;;;;;;5057991;28;20233;-66
2022/01/09 12:56:13;;;;;;;7.60;1.52;;;7.00;99.90;;;;;;5059204;28;20044;-66
2022/01/09 12:58:44;;;;;;;10.75;1.65;;;6.80;99.90;;;;;;5062476;28;20047;-66
2022/01/09 13:01:13;;;;;;;10.95;1.38;;;6.80;99.90;;;;;;5062358;28;20436;-66